Список аэропортов
Фактическая погода:

21 апреля, 19:00
Температура: +20°C (+20.0*)
Ветер: южный 4 м/с
Давление: *766 мм
неб. 1200 м
Время (МСК)Темп. СВетерВлажностьДавлениеОблачностьОсадки
15:00+21Ю, 4 м/с45%1023 гПамалооблачно
16:00+21Ю, 5 м/с50%1023 гПамалооблачно
17:00+20Ю, 5 м/с52%1022 гПас прояснениями
18:00+20Ю, 4 м/с54%1022 гПас прояснениями
19:00+19Ю, 4 м/с57%1022 гПаоблачно
20:00+18Ю, 3 м/с61%1022 гПас прояснениями
21:00+17Ю, 3 м/с66%1022 гПаоблачно
22:00+16ЮВ, 2 м/с74%1022 гПаоблачнодождь
23:00+16ЮВ, 2 м/с81%1022 гПаоблачносл. дождь
22 апреля
00:00+15В, 2 м/с84%1022 гПаоблачно
01:00+15В, 2 м/с85%1022 гПаоблачно
02:00+14В, 1 м/с87%1022 гПаоблачно
03:00+14В, 2 м/с86%1021 гПаоблачно
04:00+15В, 1 м/с82%1021 гПаоблачно
05:00+15В, 2 м/с81%1021 гПаоблачно
06:00+14В, 1 м/с80%1021 гПаоблачно
07:00+14СВ, 1 м/с79%1020 гПас прояснениями
08:00+14СВ, 1 м/с79%1020 гПаоблачно
09:00+15ЮВ, 2 м/с73%1019 гПаоблачно
10:00+16ЮВ, 2 м/с70%1018 гПас прояснениями
11:00+17Ю, 1 м/с65%1018 гПамалооблачно
12:00+18Ю, 2 м/с62%1018 гПаоблачно
13:00+19ЮВ, 2 м/с58%1018 гПаоблачно
14:00+20ЮВ, 3 м/с52%1017 гПаоблачно
15:00+21Ю, 4 м/с49%1017 гПаоблачно
16:00+21Ю, 5 м/с43%1017 гПас прояснениями
17:00+21Ю, 5 м/с40%1016 гПас прояснениями
18:00+20Ю, 5 м/с39%1016 гПаоблачно
19:00+20Ю, 3 м/с38%1015 гПаоблачно
20:00+19ЮЗ, 3 м/с44%1015 гПаоблачно
21:00+18ЮЗ, 2 м/с50%1015 гПаоблачно
22:00+18З, 1 м/с53%1015 гПаоблачно
23:00+18ЮЗ, 3 м/с56%1016 гПаоблачнодождь
23 апреля
00:00+17ЮЗ, 3 м/с64%1017 гПаоблачнодождь
01:00+16З, 1 м/с72%1017 гПаоблачнодождь
02:00+16С, 3 м/с73%1016 гПаоблачнодождь
03:00+15С, 2 м/с76%1015 гПаоблачно
04:00+15СЗ, 1 м/с77%1015 гПаоблачносл. дождь
05:00+15СЗ, 1 м/с76%1014 гПаоблачно
06:00+14Штиль 77%1014 гПаоблачнодождь
07:00+15Штиль 75%1014 гПаоблачносл. дождь
08:00+15З, 1 м/с72%1013 гПас прояснениями
09:00+17Ю, 1 м/с72%1013 гПас прояснениямисл. дождь
10:00+18Ю, 1 м/с66%1013 гПаоблачно
11:00+20ЮВ, 6 м/с48%1013 гПаоблачно
12:00+20ЮВ, 7 м/с48%1013 гПас прояснениями
13:00+21ЮВ, 6 м/с46%1014 гПаоблачно
14:00+21ЮВ, 6 м/с46%1014 гПаоблачно
15:00+20Ю, 6 м/с49%1014 гПаоблачно